createdAt,value
2023-02-01T00:00:19.032Z,5.15
2023-02-01T00:02:49.371Z,5.38
2023-02-01T00:05:22.654Z,5.37
2023-02-01T00:07:52.767Z,5.35
2023-02-01T00:10:23.480Z,5.33
2023-02-01T00:12:53.738Z,5.32
2023-02-01T00:15:24.431Z,5.31
2023-02-01T00:17:56.619Z,5.30
2023-02-01T00:20:29.365Z,5.29
2023-02-01T00:22:59.521Z,5.29
2023-02-01T00:25:29.722Z,5.31
2023-02-01T00:28:01.856Z,5.32
2023-02-01T00:30:32.001Z,5.29
2023-02-01T00:33:02.315Z,5.29
2023-02-01T00:35:37.343Z,5.27
2023-02-01T00:38:07.521Z,5.27
2023-02-01T00:40:37.637Z,5.26
2023-02-01T00:43:08.290Z,5.26
2023-02-01T00:45:39.349Z,5.28
2023-02-01T00:48:09.859Z,5.27
2023-02-01T00:50:44.726Z,5.25
2023-02-01T00:53:14.941Z,5.25
2023-02-01T00:55:48.257Z,5.25
2023-02-01T00:58:18.744Z,5.25
2023-02-01T01:00:50.660Z,5.24
2023-02-01T01:03:23.548Z,5.22
2023-02-01T01:06:00.516Z,4.98
2023-02-01T01:08:31.319Z,5.19
2023-02-01T01:11:01.576Z,5.19
2023-02-01T01:13:31.631Z,5.21
2023-02-01T01:16:03.938Z,5.24
2023-02-01T01:18:35.009Z,5.28
2023-02-01T01:21:08.111Z,5.32
2023-02-01T01:23:38.694Z,5.35
2023-02-01T01:26:09.598Z,5.36
2023-02-01T01:28:39.764Z,5.35
2023-02-01T01:31:11.960Z,5.35
2023-02-01T01:33:42.140Z,5.34
2023-02-01T01:36:15.609Z,5.32
2023-02-01T01:38:45.927Z,5.29
2023-02-01T01:41:17.935Z,5.28
2023-02-01T01:43:51.253Z,5.30
2023-02-01T01:46:23.335Z,5.31
2023-02-01T01:48:55.328Z,5.32
2023-02-01T01:51:29.793Z,5.32
2023-02-01T01:54:03.577Z,5.34
2023-02-01T01:56:34.941Z,5.35
2023-02-01T01:59:06.597Z,5.37
2023-02-01T02:01:36.883Z,5.38
2023-02-01T02:04:07.731Z,5.37
2023-02-01T02:06:46.517Z,5.35
2023-02-01T02:09:16.704Z,5.36
2023-02-01T02:11:47.010Z,5.08
2023-02-01T02:14:19.474Z,5.09
2023-02-01T02:16:54.579Z,5.34
2023-02-01T02:19:39.819Z,5.35
2023-02-01T02:22:22.915Z,5.36
2023-02-01T02:25:09.133Z,5.38
2023-02-01T02:27:52.123Z,5.40
2023-02-01T02:30:39.949Z,5.44
2023-02-01T02:33:25.186Z,5.45
2023-02-01T02:36:01.110Z,5.45
2023-02-01T02:38:34.232Z,5.48
2023-02-01T02:41:08.035Z,5.50
2023-02-01T02:43:58.276Z,5.50
2023-02-01T02:46:42.737Z,5.50
2023-02-01T02:49:16.331Z,5.52
2023-02-01T02:52:06.011Z,5.54
2023-02-01T02:54:52.796Z,5.58
2023-02-01T02:57:37.155Z,5.61
2023-02-01T03:00:21.945Z,5.62
2023-02-01T03:03:05.606Z,5.65
2023-02-01T03:05:36.771Z,5.69
2023-02-01T03:08:13.774Z,5.70
2023-02-01T03:10:47.490Z,5.76
2023-02-01T03:13:19.582Z,5.75
2023-02-01T03:15:52.896Z,5.75
2023-02-01T03:18:26.124Z,5.74
2023-02-01T03:20:57.625Z,5.75
2023-02-01T03:23:33.553Z,5.75
2023-02-01T03:26:05.649Z,5.75
2023-02-01T03:28:37.203Z,5.75
2023-02-01T03:31:08.267Z,5.73
2023-02-01T03:33:38.413Z,5.73
2023-02-01T03:36:15.248Z,5.72
2023-02-01T03:38:51.802Z,5.69
2023-02-01T03:41:27.724Z,5.70
2023-02-01T03:43:59.515Z,5.70
2023-02-01T03:46:34.570Z,5.69
2023-02-01T03:49:10.808Z,5.68
2023-02-01T03:51:43.777Z,5.64
2023-02-01T03:54:18.838Z,5.59
2023-02-01T03:56:51.303Z,5.55
2023-02-01T03:59:21.307Z,5.56
2023-02-01T04:01:51.376Z,5.56
2023-02-01T04:04:23.533Z,5.56
2023-02-01T04:06:58.067Z,5.58
2023-02-01T04:09:30.964Z,5.63
2023-02-01T04:12:01.067Z,5.68
2023-02-01T04:14:31.124Z,5.70
2023-02-01T04:17:01.135Z,5.72
2023-02-01T04:19:31.426Z,5.74
2023-02-01T04:22:01.649Z,5.74
2023-02-01T04:24:34.308Z,5.72
2023-02-01T04:27:04.288Z,5.67
2023-02-01T04:29:34.294Z,5.64
2023-02-01T04:32:04.396Z,5.59
2023-02-01T04:34:34.867Z,5.60
2023-02-01T04:37:04.852Z,5.60
2023-02-01T04:39:37.422Z,5.62
2023-02-01T04:42:07.820Z,5.65
2023-02-01T04:44:40.570Z,5.63
2023-02-01T04:47:10.641Z,5.65
2023-02-01T04:49:40.741Z,5.67
2023-02-01T04:52:10.857Z,5.68
2023-02-01T04:54:43.943Z,5.65
2023-02-01T04:57:16.199Z,5.57
2023-02-01T04:59:46.223Z,5.46
2023-02-01T05:02:16.183Z,5.38
2023-02-01T05:04:46.393Z,5.32
2023-02-01T05:07:16.447Z,5.26
2023-02-01T05:09:49.089Z,5.23
2023-02-01T05:12:31.593Z,5.19
2023-02-01T05:15:01.841Z,5.19
2023-02-01T05:17:32.092Z,5.17
2023-02-01T05:20:02.241Z,5.10
2023-02-01T05:22:32.367Z,5.09
2023-02-01T05:25:06.823Z,5.07
2023-02-01T05:27:38.470Z,5.01
2023-02-01T05:30:09.472Z,4.97
2023-02-01T05:32:39.490Z,4.93
2023-02-01T05:35:10.360Z,4.87
2023-02-01T05:37:40.751Z,4.93
2023-02-01T05:40:14.457Z,4.93
2023-02-01T05:42:44.633Z,4.98
2023-02-01T05:45:15.194Z,5.03
2023-02-01T05:47:55.800Z,5.05
2023-02-01T05:50:25.949Z,5.09
2023-02-01T05:53:00.569Z,5.14
2023-02-01T05:55:33.229Z,5.19
2023-02-01T05:58:03.329Z,5.21
2023-02-01T06:00:33.793Z,5.26
2023-02-01T06:03:03.896Z,5.29
2023-02-01T06:05:34.008Z,5.32
2023-02-01T06:08:04.244Z,5.37
2023-02-01T06:10:37.043Z,5.39
2023-02-01T06:13:07.146Z,5.40
2023-02-01T06:15:38.466Z,5.39
2023-02-01T06:18:08.582Z,5.40
2023-02-01T06:20:38.827Z,5.42
2023-02-01T06:23:08.874Z,5.44
2023-02-01T06:25:41.452Z,5.46
2023-02-01T06:28:11.437Z,5.45
2023-02-01T06:30:44.314Z,5.44
2023-02-01T06:33:15.805Z,5.45
2023-02-01T06:35:46.851Z,5.45
2023-02-01T06:38:17.316Z,5.41
2023-02-01T06:40:55.629Z,5.40
2023-02-01T06:43:26.495Z,5.36
2023-02-01T06:45:56.751Z,5.35
2023-02-01T06:48:26.703Z,5.33
2023-02-01T06:50:56.831Z,5.27
2023-02-01T06:53:26.966Z,5.23
2023-02-01T06:56:01.565Z,5.18
2023-02-01T06:58:32.461Z,5.15
2023-02-01T07:01:07.787Z,5.14
2023-02-01T07:03:37.992Z,5.14
2023-02-01T07:06:08.621Z,5.15
2023-02-01T07:08:40.313Z,5.19
2023-02-01T07:11:14.588Z,5.23
2023-02-01T07:13:44.698Z,5.27
2023-02-01T07:16:16.213Z,5.27
2023-02-01T07:18:46.505Z,5.01
2023-02-01T07:21:16.614Z,5.00
2023-02-01T07:23:46.725Z,5.26
2023-02-01T07:26:19.688Z,5.27
2023-02-01T07:28:50.021Z,5.30
2023-02-01T07:31:21.940Z,5.34
2023-02-01T07:33:52.636Z,5.37
2023-02-01T07:36:22.968Z,5.39
2023-02-01T07:38:56.363Z,5.44
2023-02-01T07:41:29.386Z,5.47
2023-02-01T07:43:59.544Z,5.49
2023-02-01T07:46:29.768Z,5.50
2023-02-01T07:48:59.886Z,5.48
2023-02-01T07:51:29.903Z,5.54
2023-02-01T07:54:00.191Z,5.61
2023-02-01T07:56:32.946Z,5.65
2023-02-01T07:59:02.957Z,5.65
2023-02-01T08:01:30.637Z,5.66
2023-02-01T08:04:03.230Z,5.67
2023-02-01T08:06:34.940Z,5.64
2023-02-01T08:09:05.388Z,5.57
2023-02-01T08:11:39.081Z,5.56
2023-02-01T08:14:09.710Z,5.58
2023-02-01T08:16:40.352Z,5.62
2023-02-01T08:19:10.575Z,5.68
2023-02-01T08:21:40.744Z,5.73
2023-02-01T08:24:12.928Z,5.79
2023-02-01T08:26:46.114Z,5.49
2023-02-01T08:29:16.152Z,5.85
2023-02-01T08:31:46.341Z,5.66
2023-02-01T08:34:16.433Z,5.92
2023-02-01T08:36:46.815Z,5.90
2023-02-01T08:39:16.984Z,5.90
2023-02-01T08:42:11.165Z,5.92
2023-02-01T08:44:41.321Z,5.97
2023-02-01T08:47:12.426Z,6.02
2023-02-01T08:49:42.549Z,6.06
2023-02-01T08:52:16.013Z,6.13
2023-02-01T08:54:46.820Z,6.21
2023-02-01T08:57:19.997Z,6.25
2023-02-01T08:59:50.541Z,6.26
2023-02-01T09:02:22.674Z,6.29
2023-02-01T09:04:53.052Z,6.33
2023-02-01T09:07:23.432Z,6.38
2023-02-01T09:09:55.663Z,6.44
2023-02-01T09:12:28.497Z,6.53
2023-02-01T09:15:00.611Z,6.62
2023-02-01T09:17:31.450Z,6.70
2023-02-01T09:20:01.560Z,6.76
2023-02-01T09:22:31.944Z,6.79
2023-02-01T09:25:01.984Z,6.81
2023-02-01T09:27:34.661Z,6.78
2023-02-01T09:30:05.664Z,6.78
2023-02-01T09:32:36.004Z,6.81
2023-02-01T09:35:06.120Z,6.87
2023-02-01T09:37:37.122Z,6.84
2023-02-01T09:40:07.970Z,6.85
2023-02-01T09:42:53.966Z,6.86
2023-02-01T09:45:27.808Z,6.84
2023-02-01T09:47:59.271Z,6.84
2023-02-01T09:50:35.057Z,6.81
2023-02-01T09:53:06.473Z,6.79
2023-02-01T09:55:40.143Z,6.80
2023-02-01T09:58:17.667Z,6.80
2023-02-01T10:00:52.486Z,6.83
2023-02-01T10:03:23.485Z,6.89
2023-02-01T10:06:07.748Z,6.93
2023-02-01T10:08:43.144Z,6.95
2023-02-01T10:11:22.640Z,7.00
2023-02-01T10:14:01.683Z,7.05
2023-02-01T10:16:38.490Z,7.07
2023-02-01T10:19:20.793Z,7.12
2023-02-01T10:21:54.923Z,7.19
2023-02-01T10:24:40.439Z,7.22
2023-02-01T10:27:15.784Z,7.24
2023-02-01T10:29:52.044Z,7.05
2023-02-01T10:32:24.391Z,7.35
2023-02-01T10:34:57.004Z,7.32
2023-02-01T10:37:37.198Z,7.35
2023-02-01T10:40:14.142Z,7.34
2023-02-01T10:42:44.352Z,7.31
2023-02-01T10:45:21.025Z,7.31
2023-02-01T10:47:53.162Z,7.27
2023-02-01T10:50:28.909Z,7.28
2023-02-01T10:53:02.650Z,7.24
2023-02-01T10:55:35.790Z,7.24
2023-02-01T10:58:06.536Z,7.18
2023-02-01T11:00:48.387Z,7.15
2023-02-01T11:03:43.198Z,7.20
2023-02-01T11:06:15.274Z,7.19
2023-02-01T11:08:52.482Z,7.20
2023-02-01T11:11:23.608Z,7.19
2023-02-01T11:14:01.057Z,7.21
2023-02-01T11:16:37.610Z,7.26
2023-02-01T11:19:08.207Z,7.32
2023-02-01T11:21:39.512Z,7.33
2023-02-01T11:24:14.823Z,7.36
2023-02-01T11:26:45.427Z,7.35
2023-02-01T11:29:18.677Z,7.32
2023-02-01T11:31:51.848Z,7.32
2023-02-01T11:34:24.381Z,7.35
2023-02-01T11:36:55.613Z,7.40
2023-02-01T11:39:28.531Z,7.55
2023-02-01T11:42:00.799Z,7.67
2023-02-01T11:44:34.851Z,7.71
2023-02-01T11:47:19.963Z,7.74
2023-02-01T11:49:53.582Z,7.89
2023-02-01T11:52:33.663Z,7.87
2023-02-01T11:55:12.151Z,7.79
2023-02-01T11:57:48.286Z,7.85
2023-02-01T12:00:40.926Z,7.86
2023-02-01T12:03:27.750Z,7.87
2023-02-01T12:06:02.844Z,7.95
2023-02-01T12:08:54.730Z,8.02
2023-02-01T12:11:39.128Z,8.18
2023-02-01T12:14:19.895Z,8.22
2023-02-01T12:16:56.364Z,8.10
2023-02-01T12:19:47.416Z,7.93
2023-02-01T12:22:26.262Z,7.80
2023-02-01T12:25:08.591Z,7.73
2023-02-01T12:27:53.985Z,7.71
2023-02-01T12:30:42.157Z,7.56
2023-02-01T12:33:17.914Z,7.37
2023-02-01T12:35:59.118Z,7.17
2023-02-01T12:38:39.867Z,7.05
2023-02-01T12:41:17.234Z,6.96
2023-02-01T12:43:49.817Z,6.81
2023-02-01T12:46:21.597Z,6.70
2023-02-01T12:48:57.145Z,6.61
2023-02-01T12:51:29.205Z,6.65
2023-02-01T12:54:05.942Z,6.64
2023-02-01T12:56:39.767Z,6.61
2023-02-01T12:59:19.247Z,6.63
2023-02-01T13:01:53.183Z,6.53
2023-02-01T13:04:27.223Z,6.45
2023-02-01T13:07:01.733Z,6.41
2023-02-01T13:09:38.530Z,6.39
2023-02-01T13:12:13.757Z,6.29
2023-02-01T13:14:47.575Z,6.22
2023-02-01T13:17:21.228Z,6.16
2023-02-01T13:19:54.234Z,6.09
2023-02-01T13:22:27.161Z,6.04
2023-02-01T13:25:02.233Z,5.94
2023-02-01T13:27:33.941Z,5.87
2023-02-01T13:30:06.563Z,5.78
2023-02-01T13:33:54.879Z,5.67
2023-02-01T13:36:08.976Z,5.04
2023-02-01T13:38:47.115Z,4.29
2023-02-01T13:41:28.982Z,3.84
2023-02-01T13:44:00.309Z,3.51
2023-02-01T13:46:31.316Z,3.32
2023-02-01T13:49:03.078Z,3.26
2023-02-01T13:51:37.140Z,3.29
2023-02-01T13:54:08.339Z,3.33
2023-02-01T13:56:47.771Z,3.40
2023-02-01T13:59:32.585Z,3.47
2023-02-01T14:02:23.561Z,3.49
2023-02-01T14:04:54.715Z,3.45
2023-02-01T14:07:25.928Z,3.44
2023-02-01T14:09:56.063Z,3.36
2023-02-01T14:12:41.191Z,3.35
2023-02-01T14:15:25.993Z,3.34
2023-02-01T14:17:56.750Z,3.33
2023-02-01T14:20:50.136Z,3.35
2023-02-01T14:23:31.625Z,3.30
2023-02-01T14:26:08.481Z,3.28
2023-02-01T14:28:40.622Z,3.34
2023-02-01T14:31:21.824Z,3.34
2023-02-01T14:33:51.926Z,3.36
2023-02-01T14:36:21.981Z,3.38
2023-02-01T14:38:53.660Z,3.39
2023-02-01T14:41:33.891Z,3.42
2023-02-01T14:44:17.706Z,3.47
2023-02-01T14:47:02.760Z,3.49
2023-02-01T14:49:36.919Z,3.43
2023-02-01T14:52:10.201Z,3.42
2023-02-01T14:54:41.042Z,3.39
2023-02-01T14:57:17.868Z,3.35
2023-02-01T14:59:49.429Z,3.34
2023-02-01T15:02:24.274Z,3.34
2023-02-01T15:05:02.444Z,3.33
2023-02-01T15:07:32.905Z,3.33
2023-02-01T15:10:03.613Z,3.35
2023-02-01T15:12:34.304Z,3.43
2023-02-01T15:15:13.588Z,3.49
2023-02-01T15:17:44.148Z,3.57
2023-02-01T15:20:22.196Z,3.66
2023-02-01T15:22:58.284Z,3.74
2023-02-01T15:25:30.058Z,3.80
2023-02-01T15:28:00.546Z,3.89
2023-02-01T15:30:31.562Z,3.84
2023-02-01T15:33:09.729Z,3.77
2023-02-01T15:35:44.684Z,3.72
2023-02-01T15:38:25.364Z,3.66
2023-02-01T15:40:59.652Z,3.65
2023-02-01T15:43:30.629Z,3.67
2023-02-01T15:46:01.259Z,3.68
2023-02-01T15:48:35.183Z,3.66
2023-02-01T15:51:08.620Z,3.62
2023-02-01T15:53:38.798Z,3.65
2023-02-01T15:56:10.278Z,3.64
2023-02-01T15:58:40.390Z,3.65
2023-02-01T16:01:14.996Z,3.66
2023-02-01T16:03:48.213Z,3.64
2023-02-01T16:06:35.337Z,3.66
2023-02-01T16:09:06.551Z,3.66
2023-02-01T16:11:43.536Z,3.64
2023-02-01T16:14:13.900Z,3.62
2023-02-01T16:16:44.273Z,3.60
2023-02-01T16:19:14.384Z,3.56
2023-02-01T16:21:47.082Z,3.53
2023-02-01T16:24:17.183Z,3.53
2023-02-01T16:26:47.577Z,3.54
2023-02-01T16:29:17.764Z,3.55
2023-02-01T16:31:47.869Z,3.60
2023-02-01T16:34:18.673Z,3.63
2023-02-01T16:36:58.029Z,3.65
2023-02-01T16:39:28.751Z,3.67
2023-02-01T16:42:00.993Z,3.72
2023-02-01T16:44:31.587Z,3.80
2023-02-01T16:47:01.792Z,3.88
2023-02-01T16:49:31.805Z,3.92
2023-02-01T16:52:04.533Z,3.99
2023-02-01T16:54:34.602Z,4.06
2023-02-01T16:57:04.627Z,4.13
2023-02-01T16:59:34.804Z,4.19
2023-02-01T17:02:05.018Z,4.29
2023-02-01T17:04:36.792Z,4.40
2023-02-01T17:07:10.544Z,4.45
2023-02-01T17:09:40.969Z,4.50
2023-02-01T17:12:15.893Z,4.55
2023-02-01T17:14:46.585Z,4.60
2023-02-01T17:17:20.517Z,4.67
2023-02-01T17:19:54.368Z,4.74
2023-02-01T17:22:27.495Z,4.81
2023-02-01T17:24:57.698Z,4.88
2023-02-01T17:27:27.797Z,4.96
2023-02-01T17:29:58.005Z,5.01
2023-02-01T17:32:29.129Z,5.09
2023-02-01T17:34:59.151Z,5.14
2023-02-01T17:37:32.970Z,5.17
2023-02-01T17:40:03.555Z,5.23
2023-02-01T17:42:33.982Z,5.25
2023-02-01T17:45:05.388Z,5.27
2023-02-01T17:47:36.119Z,5.27
2023-02-01T17:50:06.362Z,5.29
2023-02-01T17:52:39.583Z,5.29
2023-02-01T17:55:18.667Z,5.28
2023-02-01T17:57:49.104Z,5.31
2023-02-01T18:00:20.365Z,5.29
2023-02-01T18:02:50.774Z,5.28
2023-02-01T18:05:23.921Z,5.29
2023-02-01T18:07:56.835Z,5.26
2023-02-01T18:10:26.909Z,5.20
2023-02-01T18:12:57.505Z,5.10
2023-02-01T18:15:29.036Z,5.05
2023-02-01T18:17:59.823Z,4.98
2023-02-01T18:20:30.789Z,4.97
2023-02-01T18:23:04.519Z,5.04
2023-02-01T18:25:38.745Z,5.06
2023-02-01T18:28:08.944Z,5.01
2023-02-01T18:30:39.112Z,5.03
2023-02-01T18:33:09.418Z,5.10
2023-02-01T18:35:39.766Z,5.19
2023-02-01T18:38:12.489Z,5.25
2023-02-01T18:40:44.671Z,5.34
2023-02-01T18:43:15.279Z,5.36
2023-02-01T18:45:47.379Z,5.28
2023-02-01T18:48:19.583Z,5.27
2023-02-01T18:50:52.058Z,5.16
2023-02-01T18:53:27.183Z,5.02
2023-02-01T18:55:57.615Z,4.89
2023-02-01T18:58:28.254Z,4.78
2023-02-01T19:00:59.150Z,4.59
2023-02-01T19:03:29.251Z,4.45
2023-02-01T19:05:59.888Z,4.32
2023-02-01T19:08:33.001Z,4.24
2023-02-01T19:11:03.245Z,4.20
2023-02-01T19:13:33.294Z,4.23
2023-02-01T19:16:08.345Z,4.36
2023-02-01T19:18:39.445Z,4.54
2023-02-01T19:21:13.434Z,4.68
2023-02-01T19:23:49.439Z,4.74
2023-02-01T19:26:20.473Z,4.76
2023-02-01T19:28:50.565Z,4.72
2023-02-01T19:31:20.871Z,4.71
2023-02-01T19:33:51.319Z,4.71
2023-02-01T19:36:21.579Z,4.76
2023-02-01T19:38:54.276Z,4.78
2023-02-01T19:41:24.288Z,4.75
2023-02-01T19:43:54.446Z,4.71
2023-02-01T19:46:24.689Z,4.70
2023-02-01T19:48:54.752Z,4.68
2023-02-01T19:51:24.926Z,4.74
2023-02-01T19:53:57.642Z,4.78
2023-02-01T19:56:27.717Z,4.76
2023-02-01T19:58:58.407Z,4.78
2023-02-01T20:01:28.261Z,4.82
2023-02-01T20:04:01.879Z,4.91
2023-02-01T20:06:32.213Z,5.03
2023-02-01T20:09:04.847Z,5.09
2023-02-01T20:11:35.389Z,5.12
2023-02-01T20:14:05.422Z,5.13
2023-02-01T20:16:35.606Z,5.13
2023-02-01T20:19:06.076Z,5.15
2023-02-01T20:21:36.062Z,5.14
2023-02-01T20:24:08.907Z,5.20
2023-02-01T20:26:39.817Z,5.25
2023-02-01T20:29:10.323Z,5.24
2023-02-01T20:31:40.420Z,5.24
2023-02-01T20:34:10.499Z,5.22
2023-02-01T20:36:40.739Z,5.00
2023-02-01T20:39:13.475Z,4.79
2023-02-01T20:41:43.683Z,4.69
2023-02-01T20:44:13.850Z,4.69
2023-02-01T20:46:43.967Z,4.73
2023-02-01T20:49:14.041Z,4.78
2023-02-01T20:51:44.213Z,4.79
2023-02-01T20:54:16.852Z,4.83
2023-02-01T20:56:47.694Z,4.89
2023-02-01T20:59:17.909Z,4.95
2023-02-01T21:01:54.632Z,4.98
2023-02-01T21:04:27.499Z,4.90
2023-02-01T21:06:57.997Z,4.78
2023-02-01T21:09:31.270Z,4.74
2023-02-01T21:12:02.026Z,4.70
2023-02-01T21:14:32.301Z,4.74
2023-02-01T21:17:02.619Z,4.71
2023-02-01T21:19:43.084Z,4.64
2023-02-01T21:22:13.697Z,4.64
2023-02-01T21:24:46.323Z,4.62
2023-02-01T21:27:16.598Z,4.67
2023-02-01T21:29:46.768Z,4.77
2023-02-01T21:32:16.865Z,4.86
2023-02-01T21:34:47.211Z,4.97
2023-02-01T21:37:17.339Z,5.08
2023-02-01T21:39:50.694Z,5.17
2023-02-01T21:42:22.122Z,5.23
2023-02-01T21:44:52.456Z,5.28
2023-02-01T21:47:26.001Z,5.26
2023-02-01T21:49:57.124Z,5.19
2023-02-01T21:52:28.049Z,5.17
2023-02-01T21:55:00.913Z,5.14
2023-02-01T21:57:31.265Z,5.15
2023-02-01T22:00:01.530Z,5.18
2023-02-01T22:02:34.596Z,5.24
2023-02-01T22:05:05.315Z,5.34
2023-02-01T22:07:36.502Z,5.40
2023-02-01T22:10:09.565Z,5.43
2023-02-01T22:12:39.735Z,5.46
2023-02-01T22:15:10.251Z,5.22
2023-02-01T22:17:41.197Z,5.50
2023-02-01T22:20:12.267Z,5.51
2023-02-01T22:22:42.567Z,5.53
2023-02-01T22:25:15.446Z,5.53
2023-02-01T22:28:32.341Z,5.55
2023-02-01T22:30:35.816Z,5.55
2023-02-01T22:33:06.187Z,5.52
2023-02-01T22:35:36.222Z,5.45
2023-02-01T22:38:06.450Z,5.33
2023-02-01T22:40:39.017Z,5.27
2023-02-01T22:43:09.018Z,5.32
2023-02-01T22:45:39.347Z,5.35
2023-02-01T22:48:09.650Z,5.35
2023-02-01T22:50:39.704Z,5.34
2023-02-01T22:53:09.820Z,5.34
2023-02-01T22:55:45.477Z,5.34
2023-02-01T22:58:15.772Z,5.35
2023-02-01T23:00:45.747Z,5.32
2023-02-01T23:03:15.814Z,5.29
2023-02-01T23:05:45.991Z,5.28
2023-02-01T23:08:16.046Z,5.27
2023-02-01T23:10:48.793Z,5.27
2023-02-01T23:13:18.840Z,5.28
2023-02-01T23:15:49.001Z,5.31
2023-02-01T23:18:19.023Z,5.35
2023-02-01T23:20:49.124Z,5.37
2023-02-01T23:23:19.079Z,5.38
2023-02-01T23:25:54.801Z,5.40
2023-02-01T23:28:24.971Z,5.40
2023-02-01T23:30:55.044Z,5.39
2023-02-01T23:33:25.945Z,5.41
2023-02-01T23:36:00.210Z,5.42
2023-02-01T23:38:30.430Z,5.43
2023-02-01T23:41:03.871Z,5.43
2023-02-01T23:43:46.444Z,5.45
2023-02-01T23:46:17.154Z,5.42
2023-02-01T23:48:47.952Z,5.36
2023-02-01T23:51:18.831Z,5.27
2023-02-01T23:53:49.182Z,5.23
2023-02-01T23:56:23.509Z,5.19
2023-02-01T23:58:53.897Z,5.20
